Ms Megan — WDE3441 — position and weather

sailwx.info

Track history (hours):
 
Tides and Currents Weather Stations Pressure Air Temp Water Temp Dewpoint Dewpoint Depression Visibility Wind Speed Wind Dir Waves Ship Positions

Ms Megan

Owner: MNM BOATS, INC, GOLDEN MEADOW, LA. More information available from US FCC via Universal Licensing System and Coast Guard Vessel Documentation Center.

Last reported at 2018-Jun-21 11:22 UTC. Time now 2018-Jun-21 11:43 UTC.
Position N 29°34' W 092°18'.

Length 50 m; draft 3 m.

Type: Cargo ship. MMSI: 367339130.

Date/timePositionNaut miles runAvg speedWind from/ knotsBaromVisibWave heightAir tempDewpointWater temp
2018-Jun-21 11:22N 29°34' W 092°18'3 5.7
2018-Jun-21 10:53N 29°37' W 092°17'2 6.0
2018-Jun-21 10:30N 29°39' W 092°16'3 6.2
2018-Jun-21 10:00N 29°42' W 092°15'3 6.1
2018-Jun-21 09:30N 29°45' W 092°13'3 5.6
2018-Jun-21 09:01N 29°46' W 092°11'1 1.2
2018-Jun-21 08:30N 29°47' W 092°10'0 0.0
2018-Jun-21 08:00N 29°47' W 092°10'0 0.0
2018-Jun-21 07:30N 29°47' W 092°10'0 0.0
2018-Jun-21 07:00N 29°47' W 092°10'0 0.0
2018-Jun-21 06:30N 29°47' W 092°10'0 0.0
2018-Jun-21 06:00N 29°47' W 092°10'0 0.0
2018-Jun-21 05:30N 29°47' W 092°10'0 0.0
2018-Jun-21 05:00N 29°47' W 092°10'0 0.0
2018-Jun-21 04:30N 29°47' W 092°10'0 0.2
2018-Jun-21 04:00N 29°47' W 092°10'3 7.0
2018-Jun-21 03:31N 29°45' W 092°13'4 7.0
2018-Jun-21 03:00N 29°41' W 092°15'0 0.9
2018-Jun-21 02:30N 29°42' W 092°15'2 3.7
2018-Jun-21 02:00N 29°44' W 092°15'3 5.5
2018-Jun-21 01:30N 29°45' W 092°12'3 6.0
2018-Jun-21 01:00N 29°47' W 092°09'1 1.7
2018-Jun-21 00:30N 29°48' W 092°09'0 0.0
2018-Jun-21 00:00N 29°48' W 092°09'0 0.0
2018-Jun-20 23:29N 29°48' W 092°09'0 0.0
2018-Jun-20 23:00N 29°48' W 092°09'0 0.0
2018-Jun-20 22:31N 29°48' W 092°09'0 0.0
2018-Jun-20 22:00N 29°48' W 092°09'0 0.2
2018-Jun-20 21:30N 29°47' W 092°09'2 4.2
2018-Jun-20 21:01N 29°47' W 092°11'0 0.7
2018-Jun-20 20:30N 29°47' W 092°10'0 0.3
2018-Jun-20 20:00N 29°47' W 092°10'0 0.0
2018-Jun-20 19:30N 29°47' W 092°10'0 0.0
2018-Jun-20 19:00N 29°47' W 092°10'0 0.0
2018-Jun-20 18:30N 29°47' W 092°10'0 0.0
2018-Jun-20 18:00N 29°47' W 092°10'0 0.0
2018-Jun-20 17:30N 29°47' W 092°10'0 0.0
2018-Jun-20 17:00N 29°47' W 092°10'0 0.0
2018-Jun-20 16:30N 29°47' W 092°10'2 3.1
2018-Jun-20 16:00N 29°47' W 092°09'0 0.4
2018-Jun-20 15:29N 29°48' W 092°09'0 0.0
2018-Jun-20 14:59N 29°48' W 092°09'0 0.0
2018-Jun-20 14:29N 29°48' W 092°09'0 0.0
2018-Jun-20 14:00N 29°48' W 092°09'0 0.2
2018-Jun-20 13:30N 29°48' W 092°09'3 5.5
2018-Jun-20 13:00N 29°46' W 092°11'4 7.7
2018-Jun-20 12:30N 29°44' W 092°15'4 7.7
2018-Jun-20 12:00N 29°40' W 092°15'4 7.2
2018-Jun-20 11:30N 29°36' W 092°17'  
Track history (hours):
 
Tides and Currents Weather Stations Pressure Air Temp Water Temp Dewpoint Dewpoint Depression Visibility Wind Speed Wind Dir Waves Ship Positions

Ms Megan

Owner: MNM BOATS, INC, GOLDEN MEADOW, LA. More information available from US FCC via Universal Licensing System and Coast Guard Vessel Documentation Center.

Last reported at 2018-Jun-21 11:22 UTC. Time now 2018-Jun-21 11:43 UTC.
Position N 29°34' W 092°18'.

Length 50 m; draft 3 m.

Type: Cargo ship. MMSI: 367339130.

Date/timePositionNaut miles runAvg speedWind from/ knotsBaromVisibWave heightAir tempDewpointWater temp
2018-Jun-21 11:22N 29°34' W 092°18'3 5.7
2018-Jun-21 10:53N 29°37' W 092°17'2 6.0
2018-Jun-21 10:30N 29°39' W 092°16'3 6.2
2018-Jun-21 10:00N 29°42' W 092°15'3 6.1
2018-Jun-21 09:30N 29°45' W 092°13'3 5.6
2018-Jun-21 09:01N 29°46' W 092°11'1 1.2
2018-Jun-21 08:30N 29°47' W 092°10'0 0.0
2018-Jun-21 08:00N 29°47' W 092°10'0 0.0
2018-Jun-21 07:30N 29°47' W 092°10'0 0.0
2018-Jun-21 07:00N 29°47' W 092°10'0 0.0
2018-Jun-21 06:30N 29°47' W 092°10'0 0.0
2018-Jun-21 06:00N 29°47' W 092°10'0 0.0
2018-Jun-21 05:30N 29°47' W 092°10'0 0.0
2018-Jun-21 05:00N 29°47' W 092°10'0 0.0
2018-Jun-21 04:30N 29°47' W 092°10'0 0.2
2018-Jun-21 04:00N 29°47' W 092°10'3 7.0
2018-Jun-21 03:31N 29°45' W 092°13'4 7.0
2018-Jun-21 03:00N 29°41' W 092°15'0 0.9
2018-Jun-21 02:30N 29°42' W 092°15'2 3.7
2018-Jun-21 02:00N 29°44' W 092°15'3 5.5
2018-Jun-21 01:30N 29°45' W 092°12'3 6.0
2018-Jun-21 01:00N 29°47' W 092°09'1 1.7
2018-Jun-21 00:30N 29°48' W 092°09'0 0.0
2018-Jun-21 00:00N 29°48' W 092°09'0 0.0
2018-Jun-20 23:29N 29°48' W 092°09'0 0.0
2018-Jun-20 23:00N 29°48' W 092°09'0 0.0
2018-Jun-20 22:31N 29°48' W 092°09'0 0.0
2018-Jun-20 22:00N 29°48' W 092°09'0 0.2
2018-Jun-20 21:30N 29°47' W 092°09'2 4.2
2018-Jun-20 21:01N 29°47' W 092°11'0 0.7
2018-Jun-20 20:30N 29°47' W 092°10'0 0.3
2018-Jun-20 20:00N 29°47' W 092°10'0 0.0
2018-Jun-20 19:30N 29°47' W 092°10'0 0.0
2018-Jun-20 19:00N 29°47' W 092°10'0 0.0
2018-Jun-20 18:30N 29°47' W 092°10'0 0.0
2018-Jun-20 18:00N 29°47' W 092°10'0 0.0
2018-Jun-20 17:30N 29°47' W 092°10'0 0.0
2018-Jun-20 17:00N 29°47' W 092°10'0 0.0
2018-Jun-20 16:30N 29°47' W 092°10'2 3.1
2018-Jun-20 16:00N 29°47' W 092°09'0 0.4
2018-Jun-20 15:29N 29°48' W 092°09'0 0.0
2018-Jun-20 14:59N 29°48' W 092°09'0 0.0
2018-Jun-20 14:29N 29°48' W 092°09'0 0.0
2018-Jun-20 14:00N 29°48' W 092°09'0 0.2
2018-Jun-20 13:30N 29°48' W 092°09'3 5.5
2018-Jun-20 13:00N 29°46' W 092°11'4 7.7
2018-Jun-20 12:30N 29°44' W 092°15'4 7.7
2018-Jun-20 12:00N 29°40' W 092°15'4 7.2
2018-Jun-20 11:30N 29°36' W 092°17'  

Dump ship's entire track history